Time;durP1;ratioP1;P1;durP2;ratioP2;P2;SDS_P1;SDS_P2;PMS_P1;PMS_P2;Temp;Humidity;BMP_temperature;BMP_pressure;BME280_temperature;BME280_humidity;BME280_pressure;Samples;Min_cycle;Max_cycle;Signal;HPM_P1;HPM_P2
2023/02/23 00:00:27;;;;;;;;;;;;;;;9.07;100.00;101205.41;5040254;28;20613;-68
2023/02/23 00:02:59;;;;;;;;;;;;;;;9.10;100.00;101206.94;5045873;28;20019;-67
2023/02/23 00:05:27;;;;;;;;;;;;;;;9.10;100.00;101207.78;5048339;28;20795;-67
2023/02/23 00:07:54;;;;;;;;;;;;;;;9.13;100.00;101203.25;5044606;28;20719;-67
2023/02/23 00:10:23;;;;;;;;;;;;;;;9.13;100.00;101204.06;5050072;28;19925;-67
2023/02/23 00:12:50;;;;;;;;;;;;;;;9.12;100.00;101205.03;5037395;28;19928;-67
2023/02/23 00:15:17;;;;;;;;;;;;;;;9.12;100.00;101202.41;5043705;28;19924;-67
2023/02/23 00:17:46;;;;;;;;;;;;;;;9.09;100.00;101208.75;5035753;28;20336;-67
2023/02/23 00:20:15;;;;;;;;;;;;;;;9.08;100.00;101201.84;5043104;28;19932;-67
2023/02/23 00:22:41;;;;;;;;;;;;;;;9.10;100.00;101207.78;5026371;28;19932;-67
2023/02/23 00:25:11;;;;;;;;;;;;;;;9.08;100.00;101201.84;5036738;28;19936;-67
2023/02/23 00:27:43;;;;;;;;;;;;;;;9.08;100.00;101201.03;5032708;28;19924;-67
2023/02/23 00:30:13;;;;;;;;;;;;;;;9.06;100.00;101200.31;5034976;28;19925;-67
2023/02/23 00:32:39;;;;;;;;;;;;;;;9.08;100.00;101208.88;5045535;28;19932;-67
2023/02/23 00:35:15;;;;;;;;;;;;;;;9.08;100.00;101203.63;5025910;28;19960;-67
2023/02/23 00:37:48;;;;;;;;;;;;;;;9.08;100.00;101204.47;5029357;28;19924;-66
2023/02/23 00:40:16;;;;;;;;;;;;;;;8.97;100.00;101216.78;5031096;28;19928;-67
2023/02/23 00:42:46;;;;;;;;;;;;;;;8.96;100.00;101215.94;5043143;28;19924;-66
2023/02/23 00:45:12;;;;;;;;;;;;;;;8.90;100.00;101212.03;5039641;28;20404;-66
2023/02/23 00:47:41;;;;;;;;;;;;;;;8.91;100.00;101210.25;5039067;28;19924;-66
2023/02/23 00:50:12;;;;;;;;;;;;;;;8.94;100.00;101209.16;5033569;28;19925;-67
2023/02/23 00:52:39;;;;;;;;;;;;;;;8.89;100.00;101212.16;5023825;28;20279;-67
2023/02/23 00:55:12;;;;;;;;;;;;;;;8.91;100.00;101205.84;5037102;28;20297;-66
2023/02/23 00:57:38;;;;;;;;;;;;;;;8.89;100.00;101204.31;5042157;28;19933;-67
2023/02/23 01:00:12;;;;;;;;;;;;;;;8.91;100.00;101210.25;5035005;28;19924;-66
2023/02/23 01:02:41;;;;;;;;;;;;;;;8.88;100.00;101211.34;5036240;28;19959;-66
2023/02/23 01:05:08;;;;;;;;;;;;;;;8.89;100.00;101209.53;5033931;28;19921;-66
2023/02/23 01:07:34;;;;;;;;;;;;;;;8.85;100.00;101213.38;5045429;28;20601;-67
2023/02/23 01:10:01;;;;;;;;;;;;;;;8.88;100.00;101213.94;5040634;28;19928;-66
2023/02/23 01:12:27;;;;;;;;;;;;;;;8.91;100.00;101213.69;5036972;28;19924;-66
2023/02/23 01:14:53;;;;;;;;;;;;;;;8.96;100.00;101215.09;5024503;28;19978;-67
2023/02/23 01:17:21;;;;;;;;;;;;;;;8.99;100.00;101213.06;5042587;28;19925;-66
2023/02/23 01:19:47;;;;;;;;;;;;;;;8.98;100.00;101213.22;5032509;28;19924;-67
2023/02/23 01:22:13;;;;;;;;;;;;;;;9.00;100.00;101213.91;5038833;28;19932;-67
2023/02/23 01:24:39;;;;;;;;;;;;;;;8.96;100.00;101218.56;5031846;28;19975;-67
2023/02/23 01:27:06;;;;;;;;;;;;;;;8.94;100.00;101212.63;5030101;28;19929;-68
2023/02/23 01:29:33;;;;;;;;;;;;;;;8.94;100.00;101217.00;5041420;28;19925;-68
2023/02/23 01:31:59;;;;;;;;;;;;;;;8.96;100.00;101212.47;5039123;28;19921;-68
2023/02/23 01:34:29;;;;;;;;;;;;;;;8.98;100.00;101218.44;5031675;28;19929;-68
2023/02/23 01:36:56;;;;;;;;;;;;;;;9.01;100.00;101219.00;5027841;28;19921;-68
2023/02/23 01:39:22;;;;;;;;;;;;;;;9.03;100.00;101216.25;5037573;28;19964;-68
2023/02/23 01:41:50;;;;;;;;;;;;;;;9.02;100.00;101217.22;5033337;28;19936;-68
2023/02/23 01:44:17;;;;;;;;;;;;;;;9.04;100.00;101215.31;5029077;28;20396;-68
2023/02/23 01:46:44;;;;;;;;;;;;;;;9.05;100.00;101214.34;5029331;28;20305;-68
2023/02/23 01:49:14;;;;;;;;;;;;;;;9.06;100.00;101213.41;5027373;28;19924;-68
2023/02/23 01:51:47;;;;;;;;;;;;;;;9.03;100.00;101217.06;5055043;28;19921;-68
2023/02/23 01:54:35;;;;;;;;;;;;;;;9.01;100.00;101221.59;5039636;28;20047;-67
2023/02/23 01:57:02;;;;;;;;;;;;;;;9.03;100.00;101224.94;5036398;28;19963;-67
2023/02/23 01:59:28;;;;;;;;;;;;;;;9.04;100.00;101228.41;5029170;28;19932;-67
2023/02/23 02:01:55;;;;;;;;;;;;;;;9.03;100.00;101224.94;5034886;28;19936;-66
2023/02/23 02:04:24;;;;;;;;;;;;;;;9.02;100.00;101227.69;5046210;28;20483;-66
2023/02/23 02:06:52;;;;;;;;;;;;;;;8.97;100.00;101222.81;5039755;28;19925;-67
2023/02/23 02:09:24;;;;;;;;;;;;;;;8.92;100.00;101222.38;5050851;28;19929;-67
2023/02/23 02:11:52;;;;;;;;;;;;;;;8.92;100.00;101227.63;5035545;28;19932;-67
2023/02/23 02:14:22;;;;;;;;;;;;;;;8.97;100.00;101228.06;5032080;28;19936;-67
2023/02/23 02:17:01;;;;;;;;;;;;;;;9.01;100.00;101221.59;5052469;28;20265;-67
2023/02/23 02:19:52;;;;;;;;;;;;;;;9.00;100.00;101217.34;5052339;28;19925;-67
2023/02/23 02:22:33;;;;;;;;;;;;;;;9.02;100.00;101214.63;5045987;28;20011;-67
2023/02/23 02:24:59;;;;;;;;;;;;;;;9.05;100.00;101216.97;5021844;28;19921;-67
2023/02/23 02:27:42;;;;;;;;;;;;;;;9.05;100.00;101214.34;5028141;28;19920;-67
2023/02/23 02:30:27;;;;;;;;;;;;;;;9.05;100.00;101214.34;5034837;28;19928;-67
2023/02/23 02:33:17;;;;;;;;;;;;;;;9.03;100.00;101211.03;5051026;28;20023;-67
2023/02/23 02:35:59;;;;;;;;;;;;;;;8.99;100.00;101215.69;5012417;28;19931;-68
2023/02/23 02:38:49;;;;;;;;;;;;;;;9.01;100.00;101215.56;5037530;28;20023;-67
2023/02/23 02:41:19;;;;;;;;;;;;;;;8.99;100.00;101213.06;5023912;28;19956;-67
2023/02/23 02:43:53;;;;;;;;;;;;;;;8.99;100.00;101209.63;5045462;28;19924;-67
2023/02/23 02:46:26;;;;;;;;;;;;;;;9.00;100.00;101211.28;5029681;28;19983;-67
2023/02/23 02:49:02;;;;;;;;;;;;;;;9.00;100.00;101212.13;5042467;28;19925;-67
2023/02/23 02:51:48;;;;;;;;;;;;;;;8.97;100.00;101217.59;5041083;28;19984;-67
2023/02/23 02:54:33;;;;;;;;;;;;;;;9.00;100.00;101214.72;5028641;28;19921;-67
2023/02/23 02:57:01;;;;;;;;;;;;;;;9.00;100.00;101219.16;5041393;28;19944;-67
2023/02/23 04:18:19;;;;;;;;;;;;;;;8.98;100.00;101250.66;5029548;28;19929;-66
2023/02/23 04:20:46;;;;;;;;;;;;;;;8.97;100.00;101248.16;5025058;28;20632;-65
2023/02/23 04:23:13;;;;;;;;;;;;;;;8.96;100.00;101255.19;5042655;28;19978;-64
2023/02/23 04:25:39;;;;;;;;;;;;;;;8.93;100.00;101252.81;5043797;28;19924;-65
2023/02/23 04:28:05;;;;;;;;;;;;;;;8.94;100.00;101251.03;5037533;28;19925;-64
2023/02/23 04:30:32;;;;;;;;;;;;;;;8.94;100.00;101243.16;5015800;28;20100;-64
2023/02/23 04:32:58;;;;;;;;;;;;;;;8.95;100.00;101253.50;5021763;28;19924;-63
2023/02/23 04:35:26;;;;;;;;;;;;;;;8.97;100.00;101253.41;5017134;28;19921;-64
2023/02/23 04:37:53;;;;;;;;;;;;;;;8.93;100.00;101254.59;5033110;28;19921;-64
2023/02/23 04:40:20;;;;;;;;;;;;;;;8.90;100.00;101258.31;5043107;28;19924;-64
2023/02/23 04:42:49;;;;;;;;;;;;;;;8.91;100.00;101259.97;5031856;28;19928;-65
2023/02/23 04:45:15;;;;;;;;;;;;;;;8.87;100.00;101266.41;5027170;28;19921;-64
2023/02/23 04:47:42;;;;;;;;;;;;;;;8.86;100.00;101267.34;5015057;28;19925;-64
2023/02/23 04:50:08;;;;;;;;;;;;;;;8.82;100.00;101263.31;5028437;28;19925;-64
2023/02/23 04:52:36;;;;;;;;;;;;;;;8.83;100.00;101264.97;5033303;28;19925;-64
2023/02/23 04:55:03;;;;;;;;;;;;;;;8.84;100.00;101266.63;5034125;28;19924;-64
2023/02/23 04:57:29;;;;;;;;;;;;;;;8.83;100.00;101267.59;5028899;28;20286;-65
2023/02/23 04:59:56;;;;;;;;;;;;;;;8.83;100.00;101262.38;5017543;28;19921;-64
2023/02/23 05:02:23;;;;;;;;;;;;;;;8.85;100.00;101265.69;5052283;28;19924;-64
2023/02/23 05:04:50;;;;;;;;;;;;;;;8.81;100.00;101265.09;5024011;28;19925;-63
2023/02/23 05:07:17;;;;;;;;;;;;;;;8.83;100.00;101268.44;5051638;28;19927;-64
2023/02/23 05:09:43;;;;;;;;;;;;;;;8.81;100.00;101269.50;5029269;28;19925;-65
2023/02/23 05:12:09;;;;;;;;;;;;;;;8.82;100.00;101274.63;5046136;28;19948;-65
2023/02/23 05:14:36;;;;;;;;;;;;;;;8.83;100.00;101280.69;5036465;28;19935;-64
2023/02/23 05:17:02;;;;;;;;;;;;;;;8.80;100.00;101284.38;5024044;28;19925;-63
2023/02/23 05:19:28;;;;;;;;;;;;;;;8.79;100.00;101276.66;5030016;28;19968;-63
2023/02/23 05:21:55;;;;;;;;;;;;;;;8.80;100.00;101271.31;5023472;28;19943;-64
2023/02/23 05:24:21;;;;;;;;;;;;;;;8.78;100.00;101274.97;5038460;28;19929;-66
2023/02/23 05:26:48;;;;;;;;;;;;;;;8.76;100.00;101276.88;5018609;28;19925;-64
2023/02/23 05:29:15;;;;;;;;;;;;;;;8.74;100.00;101279.63;5025598;28;19944;-64
2023/02/23 05:31:41;;;;;;;;;;;;;;;8.74;100.00;101282.25;5032538;28;20449;-63
2023/02/23 05:34:09;;;;;;;;;;;;;;;8.76;100.00;101282.13;5026820;28;19931;-64
2023/02/23 05:36:35;;;;;;;;;;;;;;;8.75;100.00;101291.75;5042914;28;19971;-63
2023/02/23 05:39:02;;;;;;;;;;;;;;;8.75;100.00;101285.69;5035306;28;19921;-64
2023/02/23 05:41:28;;;;;;;;;;;;;;;8.77;100.00;101286.41;5041534;28;19928;-64
2023/02/23 05:43:55;;;;;;;;;;;;;;;8.75;100.00;101290.94;5029393;28;19928;-64
2023/02/23 05:46:23;;;;;;;;;;;;;;;8.72;100.00;101297.22;5036819;28;19933;-65
2023/02/23 05:49:00;;;;;;;;;;;;;;;8.65;100.00;101285.59;5031263;28;20554;-64
2023/02/23 05:51:27;;;;;;;;;;;;;;;8.65;100.00;101289.03;5032334;28;19994;-63
2023/02/23 05:53:53;;;;;;;;;;;;;;;8.64;100.00;101289.97;5024543;28;19932;-64
2023/02/23 05:56:20;;;;;;;;;;;;;;;8.64;100.00;101287.38;5025966;28;19924;-64
2023/02/23 05:58:50;;;;;;;;;;;;;;;8.65;100.00;101283.81;5035454;28;19943;-63
2023/02/23 06:01:17;;;;;;;;;;;;;;;8.65;100.00;101283.00;5025717;28;20385;-63
2023/02/23 06:03:44;;;;;;;;;;;;;;;8.66;100.00;101285.50;5030382;28;20516;-65
2023/02/23 06:06:10;;;;;;;;;;;;;;;8.66;100.00;101287.25;5026393;28;19972;-64
2023/02/23 06:08:37;;;;;;;;;;;;;;;8.64;100.00;101297.84;5023303;28;19925;-65
2023/02/23 06:11:03;;;;;;;;;;;;;;;8.65;100.00;101296.88;5030783;28;19924;-64
2023/02/23 06:13:30;;;;;;;;;;;;;;;8.63;100.00;101297.97;5025155;28;20356;-64
2023/02/23 06:15:58;;;;;;;;;;;;;;;8.64;100.00;101302.25;5030137;28;19925;-64
2023/02/23 06:18:25;;;;;;;;;;;;;;;8.66;100.00;101305.56;5027875;28;20427;-65
2023/02/23 06:20:51;;;;;;;;;;;;;;;8.65;100.00;101306.53;5034562;28;19931;-65
2023/02/23 06:23:18;;;;;;;;;;;;;;;8.64;100.00;101310.91;5027548;28;20294;-65
2023/02/23 06:25:47;;;;;;;;;;;;;;;8.64;100.00;101312.69;5013369;28;19925;-63
2023/02/23 06:28:14;;;;;;;;;;;;;;;8.65;100.00;101314.38;5045071;28;20031;-63
2023/02/23 06:30:40;;;;;;;;;;;;;;;8.66;100.00;101318.63;5026453;28;20291;-64
2023/02/23 06:33:07;;;;;;;;;;;;;;;8.65;100.00;101317.81;5032122;28;19932;-64
2023/02/23 06:35:33;;;;;;;;;;;;;;;8.65;100.00;101324.84;5030736;28;19924;-63
2023/02/23 06:38:00;;;;;;;;;;;;;;;8.66;100.00;101326.47;5024103;28;20634;-64
2023/02/23 06:40:26;;;;;;;;;;;;;;;8.67;100.00;101323.75;5037458;28;19931;-64
2023/02/23 06:42:52;;;;;;;;;;;;;;;8.65;100.00;101330.91;5031110;28;19958;-65
2023/02/23 06:45:19;;;;;;;;;;;;;;;8.59;100.00;101334.00;5028232;28;20304;-64
2023/02/23 06:47:46;;;;;;;;;;;;;;;8.61;100.00;101333.88;5020840;28;19925;-65
2023/02/23 06:50:13;;;;;;;;;;;;;;;8.65;100.00;101337.91;5025964;28;19928;-64
2023/02/23 06:52:40;;;;;;;;;;;;;;;8.64;100.00;101341.47;5035358;28;19936;-64
2023/02/23 06:55:06;;;;;;;;;;;;;;;8.60;100.00;101337.44;5030449;28;19921;-64
2023/02/23 06:57:33;;;;;;;;;;;;;;;8.60;100.00;101338.25;5031025;28;20445;-64
2023/02/23 07:00:00;;;;;;;;;;;;;;;8.60;100.00;101345.28;5034056;28;19925;-65
2023/02/23 07:02:27;;;;;;;;;;;;;;;8.60;100.00;101347.91;5025076;28;20381;-66
2023/02/23 07:04:53;;;;;;;;;;;;;;;8.62;100.00;101351.22;5019365;28;19924;-64
2023/02/23 07:07:21;;;;;;;;;;;;;;;8.61;100.00;101352.19;5036225;28;19929;-64
2023/02/23 07:09:47;;;;;;;;;;;;;;;8.62;100.00;101357.28;5026326;28;19928;-66
2023/02/23 07:12:13;;;;;;;;;;;;;;;8.59;100.00;101357.53;5026296;28;20275;-65
2023/02/23 07:14:40;;;;;;;;;;;;;;;8.57;100.00;101356.81;5020273;28;19924;-66
2023/02/23 07:17:06;;;;;;;;;;;;;;;8.59;100.00;101364.56;5015521;28;19925;-64
2023/02/23 07:19:32;;;;;;;;;;;;;;;8.60;100.00;101374.03;5027365;28;19928;-64
2023/02/23 07:21:59;;;;;;;;;;;;;;;8.61;100.00;101373.09;5019437;28;19932;-64
2023/02/23 07:24:27;;;;;;;;;;;;;;;8.60;100.00;101374.03;5031734;28;19932;-64
2023/02/23 07:26:53;;;;;;;;;;;;;;;8.58;100.00;101374.16;5030198;28;19932;-63
2023/02/23 07:29:19;;;;;;;;;;;;;;;8.55;100.00;101379.63;5026985;28;20317;-65
2023/02/23 07:31:48;;;;;;;;;;;;;;;8.55;100.00;101382.25;5032975;28;19921;-64
2023/02/23 07:34:15;;;;;;;;;;;;;;;8.54;100.00;101384.97;5023943;28;19931;-64
2023/02/23 07:36:41;;;;;;;;;;;;;;;8.54;100.00;101391.03;5034034;28;20554;-64
2023/02/23 07:39:07;;;;;;;;;;;;;;;8.57;100.00;101384.75;5022781;28;19924;-65
2023/02/23 07:41:34;;;;;;;;;;;;;;;8.56;100.00;101399.59;5032476;28;20002;-63
2023/02/23 07:44:00;;;;;;;;;;;;;;;8.58;100.00;101397.69;5028783;28;19994;-66
2023/02/23 07:46:26;;;;;;;;;;;;;;;8.58;100.00;101391.63;5020640;28;20138;-64
2023/02/23 07:48:53;;;;;;;;;;;;;;;8.60;100.00;101398.41;5033062;28;19943;-64
2023/02/23 07:51:19;;;;;;;;;;;;;;;8.59;100.00;101404.59;5020993;28;20621;-65
2023/02/23 07:53:46;;;;;;;;;;;;;;;8.61;100.00;101401.88;5028820;28;19924;-65
2023/02/23 07:56:12;;;;;;;;;;;;;;;8.65;100.00;101400.69;5023424;28;21091;-64
2023/02/23 07:58:40;;;;;;;;;;;;;;;8.67;100.00;101404.00;5018464;28;20634;-65
2023/02/23 08:01:07;;;;;;;;;;;;;;;8.67;100.00;101412.69;5035286;28;20003;-64
2023/02/23 08:03:33;;;;;;;;;;;;;;;8.68;100.00;101413.50;5026029;28;19927;-64
2023/02/23 08:06:00;;;;;;;;;;;;;;;8.70;100.00;101412.44;5028823;28;19932;-64
2023/02/23 08:08:26;;;;;;;;;;;;;;;8.71;100.00;101410.66;5030589;28;20377;-64
2023/02/23 08:11:00;;;;;;;;;;;;;;;8.75;100.00;101419.09;5030814;28;19970;-64
2023/02/23 08:13:27;;;;;;;;;;;;;;;8.78;100.00;101411.00;5024196;28;20377;-64
2023/02/23 08:15:53;;;;;;;;;;;;;;;8.77;100.00;101418.03;5048899;28;19928;-63
2023/02/23 08:18:19;;;;;;;;;;;;;;;8.80;100.00;101422.19;5017577;28;19933;-64
2023/02/23 08:20:46;;;;;;;;;;;;;;;8.82;100.00;101417.66;5018161;28;19925;-64
2023/02/23 08:23:12;;;;;;;;;;;;;;;8.84;100.00;101419.22;5023085;28;19928;-64
2023/02/23 08:25:38;;;;;;;;;;;;;;;8.85;100.00;101418.25;5017708;28;19925;-63
2023/02/23 08:28:05;;;;;;;;;;;;;;;8.85;100.00;101417.44;5025628;28;19924;-63
2023/02/23 08:30:32;;;;;;;;;;;;;;;8.87;100.00;101425.97;5024625;28;20019;-63
2023/02/23 08:33:00;;;;;;;;;;;;;;;8.89;100.00;101427.50;5025202;28;20301;-64
2023/02/23 08:35:27;;;;;;;;;;;;;;;8.88;100.00;101430.28;5030237;28;19964;-64
2023/02/23 08:37:56;;;;;;;;;;;;;;;8.89;100.00;101426.69;5024355;28;20019;-64
2023/02/23 08:40:22;;;;;;;;;;;;;;;8.90;100.00;101431.81;5038211;28;20442;-65
2023/02/23 08:42:50;;;;;;;;;;;;;;;8.95;100.00;101439.28;5029451;28;20003;-64
2023/02/23 08:45:18;;;;;;;;;;;;;;;9.00;100.00;101431.91;5040338;28;20432;-64
2023/02/23 08:47:44;;;;;;;;;;;;;;;8.98;100.00;101435.63;5008635;28;19931;-64
2023/02/23 08:50:11;;;;;;;;;;;;;;;9.03;100.00;101451.78;5023021;28;20142;-64
2023/02/23 08:52:38;;;;;;;;;;;;;;;8.98;100.00;101452.16;5019986;28;19921;-65
2023/02/23 08:55:05;;;;;;;;;;;;;;;9.05;100.00;101444.63;5022176;28;20548;-65
2023/02/23 08:57:32;;;;;;;;;;;;;;;9.09;100.00;101448.66;5031431;28;19982;-64
2023/02/23 08:59:58;;;;;;;;;;;;;;;9.14;100.00;101445.72;5032103;28;20300;-64
2023/02/23 09:02:26;;;;;;;;;;;;;;;9.18;100.00;101450.56;5036277;28;19932;-64
2023/02/23 09:04:52;;;;;;;;;;;;;;;9.21;100.00;101454.72;5027984;28;20354;-64
2023/02/23 09:07:21;;;;;;;;;;;;;;;9.25;100.00;101456.97;5031026;28;19925;-64
2023/02/23 09:09:55;;;;;;;;;;;;;;;9.28;100.00;101453.28;5029348;28;19932;-64
2023/02/23 09:12:21;;;;;;;;;;;;;;;9.30;100.00;101461.84;5015869;28;19931;-65
2023/02/23 09:14:48;;;;;;;;;;;;;;;9.26;100.00;101468.28;5026922;28;19955;-64
2023/02/23 09:17:14;;;;;;;;;;;;;;;9.24;100.00;101471.00;5021341;28;19982;-64
2023/02/23 09:19:43;;;;;;;;;;;;;;;9.21;100.00;101471.28;5017258;28;20120;-65
2023/02/23 09:22:09;;;;;;;;;;;;;;;9.22;100.00;101474.72;5027198;28;19925;-64
2023/02/23 09:24:37;;;;;;;;;;;;;;;9.26;100.00;101478.75;5029600;28;20036;-64
2023/02/23 09:27:06;;;;;;;;;;;;;;;9.21;100.00;101478.28;5039018;28;20290;-64
2023/02/23 09:29:32;;;;;;;;;;;;;;;9.20;100.00;101480.06;5017397;28;19921;-65
2023/02/23 09:31:59;;;;;;;;;;;;;;;9.24;100.00;101476.25;5019786;28;20032;-64
2023/02/23 09:34:29;;;;;;;;;;;;;;;9.25;100.00;101474.44;5017437;28;20585;-63
2023/02/23 09:36:55;;;;;;;;;;;;;;;9.24;100.00;101480.66;5028788;28;20340;-64
2023/02/23 09:39:22;;;;;;;;;;;;;;;9.24;100.00;101483.28;5029526;28;19929;-65
2023/02/23 09:42:02;;;;;;;;;;;;;;;9.17;100.00;101487.31;5028940;28;20355;-65
2023/02/23 09:44:46;;;;;;;;;;;;;;;9.17;100.00;101497.78;5048610;28;19924;-64
2023/02/23 09:47:25;;;;;;;;;;;;;;;9.23;100.00;101490.31;5029663;28;19921;-65
2023/02/23 09:49:52;;;;;;;;;;;;;;;9.24;100.00;101491.97;5032948;28;20361;-65
2023/02/23 09:52:22;;;;;;;;;;;;;;;9.30;100.00;101496.69;5023502;28;20374;-65
2023/02/23 09:54:49;;;;;;;;;;;;;;;9.36;100.00;101502.41;5037483;28;19925;-65
2023/02/23 09:57:43;;;;;;;;;;;;;;;9.36;100.00;101502.41;5038337;28;20185;-64
2023/02/23 10:00:37;;;;;;;;;;;;;;;9.39;100.00;101504.78;5040019;28;19939;-65
2023/02/23 10:03:27;;;;;;;;;;;;;;;9.41;100.00;101502.88;5034158;28;19943;-65
2023/02/23 10:05:57;;;;;;;;;;;;;;;9.49;100.00;101500.50;5041475;28;20199;-65
2023/02/23 10:08:36;;;;;;;;;;;;;;;9.53;100.00;101496.66;5034006;28;20368;-64
2023/02/23 10:11:18;;;;;;;;;;;;;;;9.55;100.00;101492.13;5025376;28;20366;-64
2023/02/23 10:14:06;;;;;;;;;;;;;;;9.57;100.00;101497.25;5043015;28;20143;-64
2023/02/23 10:16:33;;;;;;;;;;;;;;;9.56;100.00;101492.97;5024678;28;19921;-64
2023/02/23 10:19:11;;;;;;;;;;;;;;;9.58;100.00;101496.28;5043668;28;20404;-64
2023/02/23 10:21:40;;;;;;;;;;;;;;;9.49;100.00;101488.22;5029516;28;19924;-65
2023/02/23 10:24:12;;;;;;;;;;;;;;;9.52;100.00;101492.38;5026321;28;19932;-64
2023/02/23 10:26:46;;;;;;;;;;;;;;;9.50;100.00;101495.09;5024780;28;20530;-65
2023/02/23 10:29:18;;;;;;;;;;;;;;;9.53;100.00;101495.84;5021507;28;19985;-64
2023/02/23 10:31:48;;;;;;;;;;;;;;;9.54;100.00;101502.72;5023350;28;19936;-65
2023/02/23 10:34:15;;;;;;;;;;;;;;;9.56;100.00;101493.78;5017022;28;19928;-65
2023/02/23 10:36:48;;;;;;;;;;;;;;;9.58;100.00;101496.28;5038321;28;19924;-64
2023/02/23 10:39:14;;;;;;;;;;;;;;;9.58;100.00;101504.97;5030960;28;20308;-63
2023/02/23 10:41:41;;;;;;;;;;;;;;;9.55;100.00;101502.63;5031011;28;19931;-63
2023/02/23 10:44:15;;;;;;;;;;;;;;;9.54;100.00;101507.97;5033440;28;19925;-65
2023/02/23 10:46:42;;;;;;;;;;;;;;;9.52;100.00;101515.13;5029416;28;19935;-65
2023/02/23 10:49:16;;;;;;;;;;;;;;;9.47;100.00;101516.31;5033681;28;19979;-64
2023/02/23 10:51:44;;;;;;;;;;;;;;;9.44;100.00;101516.56;5025107;28;20342;-65
2023/02/23 10:54:29;;;;;;;;;;;;;;;9.46;100.00;101521.69;5023885;28;19929;-64
2023/02/23 10:56:55;;;;;;;;;;;;;;;9.46;100.00;101516.44;5026393;28;20309;-64
2023/02/23 10:59:21;;;;;;;;;;;;;;;9.41;100.00;101527.28;5028706;28;19932;-65
2023/02/23 11:01:48;;;;;;;;;;;;;;;9.34;100.00;101523.47;5023162;28;20348;-64
2023/02/23 11:04:29;;;;;;;;;;;;;;;9.44;100.00;101518.34;5033140;28;19931;-65
2023/02/23 11:07:13;;;;;;;;;;;;;;;9.45;100.00;101522.66;5031137;28;19924;-64
2023/02/23 11:09:40;;;;;;;;;;;;;;;9.45;100.00;101525.25;5033610;28;20647;-63
2023/02/23 11:12:24;;;;;;;;;;;;;;;9.42;100.00;101525.50;5030447;28;20249;-64
2023/02/23 11:15:10;;;;;;;;;;;;;;;9.47;100.00;101520.75;5035070;28;19920;-64
2023/02/23 11:17:37;;;;;;;;;;;;;;;9.50;100.00;101525.72;5031176;28;19925;-64
2023/02/23 11:20:16;;;;;;;;;;;;;;;9.52;100.00;101528.22;5033395;28;19967;-64
2023/02/23 11:22:42;;;;;;;;;;;;;;;9.60;100.00;101531.06;5037118;28;19924;-63
2023/02/23 11:25:20;;;;;;;;;;;;;;;9.56;100.00;101517.38;5019877;28;19924;-66
2023/02/23 11:27:50;;;;;;;;;;;;;;;9.58;100.00;101515.44;5028289;28;20361;-66
2023/02/23 11:30:19;;;;;;;;;;;;;;;9.64;100.00;101515.00;5020400;28;19933;-64
2023/02/23 11:32:49;;;;;;;;;;;;;;;9.70;100.00;101511.00;5033910;28;20047;-65
2023/02/23 11:35:15;;;;;;;;;;;;;;;9.72;100.00;101509.09;5031027;28;20327;-64
2023/02/23 11:37:42;;;;;;;;;;;;;;;9.70;100.00;101514.50;5026567;28;19932;-64
2023/02/23 11:40:18;;;;;;;;;;;;;;;9.59;100.00;101509.28;5044420;28;19931;-65
2023/02/23 11:42:54;;;;;;;;;;;;;;;9.64;100.00;101512.38;5025509;28;20627;-65
2023/02/23 11:45:21;;;;;;;;;;;;;;;9.66;100.00;101512.22;5042987;28;19921;-64
2023/02/23 11:47:49;;;;;;;;;;;;;;;9.59;100.00;101516.31;5029774;28;19925;-64
2023/02/23 11:50:20;;;;;;;;;;;;;;;9.62;100.00;101516.03;5029440;28;20368;-64
2023/02/23 11:52:49;;;;;;;;;;;;;;;9.60;100.00;101510.91;5021445;28;19921;-64
2023/02/23 11:55:17;;;;;;;;;;;;;;;9.64;100.00;101512.38;5028889;28;19925;-64
2023/02/23 11:57:43;;;;;;;;;;;;;;;9.72;100.00;101516.97;5035441;28;20448;-64
2023/02/23 12:00:11;;;;;;;;;;;;;;;9.72;100.00;101513.50;5036786;28;19924;-65
2023/02/23 12:02:48;;;;;;;;;;;;;;;9.74;100.00;101514.22;5048366;28;19936;-64
2023/02/23 12:05:23;;;;;;;;;;;;;;;9.68;100.00;101505.06;5026897;28;19924;-64
2023/02/23 12:07:49;;;;;;;;;;;;;;;9.69;100.00;101510.19;5015285;28;20011;-65
2023/02/23 12:10:28;;;;;;;;;;;;;;;9.71;100.00;101512.69;5041326;28;20260;-64
2023/02/23 12:13:06;;;;;;;;;;;;;;;9.71;100.00;101512.69;5041267;28;19974;-64
2023/02/23 12:15:51;;;;;;;;;;;;;;;9.78;100.00;101511.25;5037648;28;20107;-65
2023/02/23 12:18:20;;;;;;;;;;;;;;;9.82;100.00;101504.81;5034625;28;19925;-65
2023/02/23 12:20:49;;;;;;;;;;;;;;;9.84;100.00;101502.88;5039678;28;19979;-64
2023/02/23 12:23:21;;;;;;;;;;;;;;;9.83;100.00;101505.63;5021906;28;19929;-64
2023/02/23 12:25:53;;;;;;;;;;;;;;;9.89;100.00;101511.19;5034759;28;20603;-64
2023/02/23 12:28:25;;;;;;;;;;;;;;;9.88;100.00;101509.53;5030921;28;20014;-65
2023/02/23 12:31:12;;;;;;;;;;;;;;;9.93;100.00;101517.00;5041396;28;20383;-64
2023/02/23 12:33:40;;;;;;;;;;;;;;;9.86;100.00;101515.88;5028590;28;19925;-65
2023/02/23 12:36:28;;;;;;;;;;;;;;;9.86;100.00;101523.72;5038390;28;19930;-64
2023/02/23 12:39:05;;;;;;;;;;;;;;;9.86;100.00;101518.50;5033128;28;19939;-64
2023/02/23 12:41:42;;;;;;;;;;;;;;;9.82;100.00;101517.91;5026076;28;20469;-64
2023/02/23 12:44:19;;;;;;;;;;;;;;;9.81;100.00;101515.41;5036690;28;19931;-65
2023/02/23 12:46:47;;;;;;;;;;;;;;;9.72;100.00;101516.97;5018958;28;20309;-66
2023/02/23 12:49:15;;;;;;;;;;;;;;;9.73;100.00;101508.16;5024221;28;20425;-65
2023/02/23 12:51:46;;;;;;;;;;;;;;;9.78;100.00;101518.25;5013803;28;19924;-66
2023/02/23 12:54:14;;;;;;;;;;;;;;;9.78;100.00;101515.63;5044790;28;19920;-65
2023/02/23 12:56:59;;;;;;;;;;;;;;;9.83;100.00;101516.09;5031905;28;19921;-65
2023/02/23 12:59:45;;;;;;;;;;;;;;;9.81;100.00;101510.16;5030942;28;20446;-65
2023/02/23 13:02:16;;;;;;;;;;;;;;;9.83;100.00;101511.69;5014994;28;20662;-66
2023/02/23 13:05:01;;;;;;;;;;;;;;;9.70;100.00;101516.25;5027026;28;20207;-65
2023/02/23 13:07:34;;;;;;;;;;;;;;;9.72;100.00;101511.72;5029268;28;19931;-65
2023/02/23 13:10:13;;;;;;;;;;;;;;;9.66;100.00;101510.44;5027993;28;19925;-64
2023/02/23 13:12:39;;;;;;;;;;;;;;;9.66;100.00;101513.06;5028801;28;20293;-65
2023/02/23 13:15:29;;;;;;;;;;;;;;;9.65;100.00;101511.41;5023125;28;19929;-64
2023/02/23 13:17:58;;;;;;;;;;;;;;;9.67;100.00;101509.47;5035347;28;19986;-64
2023/02/23 13:20:47;;;;;;;;;;;;;;;9.68;100.00;101515.53;5036146;28;20471;-65
2023/02/23 13:23:29;;;;;;;;;;;;;;;9.72;100.00;101524.00;5029803;28;20392;-64
2023/02/23 13:26:09;;;;;;;;;;;;;;;9.74;100.00;101515.06;5037204;28;19928;-64
2023/02/23 13:28:38;;;;;;;;;;;;;;;9.75;100.00;101515.91;5033703;28;19928;-65
2023/02/23 13:31:12;;;;;;;;;;;;;;;9.75;100.00;101511.47;5018083;28;19924;-63
2023/02/23 13:33:38;;;;;;;;;;;;;;;9.75;100.00;101511.47;5038930;28;19995;-65
2023/02/23 13:36:11;;;;;;;;;;;;;;;9.77;100.00;101514.00;5032432;28;20034;-65
2023/02/23 13:38:45;;;;;;;;;;;;;;;9.82;100.00;101509.19;5013710;28;20385;-64
2023/02/23 13:41:16;;;;;;;;;;;;;;;9.79;100.00;101510.28;5033805;28;19931;-65
2023/02/23 13:43:48;;;;;;;;;;;;;;;9.82;100.00;101504.81;5033133;28;20032;-64
2023/02/23 13:46:20;;;;;;;;;;;;;;;9.82;100.00;101510.03;5040742;28;19951;-66
2023/02/23 13:48:56;;;;;;;;;;;;;;;9.85;100.00;101515.00;5034366;28;19925;-65
2023/02/23 13:51:28;;;;;;;;;;;;;;;9.83;100.00;101511.69;5036051;28;19925;-64
2023/02/23 13:53:59;;;;;;;;;;;;;;;9.82;100.00;101504.81;5020131;28;19925;-65
2023/02/23 13:56:27;;;;;;;;;;;;;;;9.80;100.00;101504.09;5037537;28;19929;-65
2023/02/23 13:58:57;;;;;;;;;;;;;;;9.82;100.00;101501.31;5025409;28;19968;-64
2023/02/23 14:01:26;;;;;;;;;;;;;;;9.79;100.00;101505.03;5033837;28;19979;-64
2023/02/23 14:04:00;;;;;;;;;;;;;;;9.86;100.00;101495.72;5032594;28;19952;-64
2023/02/23 14:06:28;;;;;;;;;;;;;;;9.87;100.00;101497.38;5034734;28;20015;-64
2023/02/23 14:09:15;;;;;;;;;;;;;;;9.96;100.00;101500.19;5029233;28;19925;-65